Time;durP1;ratioP1;P1;durP2;ratioP2;P2;SDS_P1;SDS_P2;PMS_P1;PMS_P2;Temp;Humidity;BMP_temperature;BMP_pressure;BME280_temperature;BME280_humidity;BME280_pressure;Samples;Min_cycle;Max_cycle;Signal;HPM_P1;HPM_P2
2022/03/13 00:01:22;;;;;;;14.30;8.87;;;;;6.30;101067.00;;;;5087503;28;20374;-66
2022/03/13 00:04:13;;;;;;;15.60;7.93;;;;;6.30;101066.00;;;;5074576;28;20223;-66
2022/03/13 00:06:59;;;;;;;12.67;7.40;;;;;6.10;101073.00;;;;5063238;28;20234;-67
2022/03/13 00:09:46;;;;;;;15.73;8.43;;;;;6.20;101072.00;;;;5081634;28;20598;-67
2022/03/13 00:12:32;;;;;;;13.43;7.60;;;;;6.20;101065.00;;;;5077777;28;20278;-68
2022/03/13 00:15:26;;;;;;;16.97;8.37;;;;;6.20;101072.00;;;;5081627;28;20312;-66
2022/03/13 00:18:13;;;;;;;20.07;7.93;;;;;5.90;101068.00;;;;5072190;28;20939;-67
2022/03/13 00:21:01;;;;;;;14.83;8.57;;;;;6.10;101066.00;;;;5084674;28;20229;-65
2022/03/13 00:23:48;;;;;;;16.00;8.17;;;;;6.10;101066.00;;;;5104332;28;20300;-64
2022/03/13 00:26:35;;;;;;;19.87;8.87;;;;;6.10;101075.00;;;;5100829;28;20227;-68
2022/03/13 00:29:21;;;;;;;16.50;8.23;;;;;6.00;101070.00;;;;5092779;28;20736;-68
2022/03/13 00:32:09;;;;;;;16.20;8.33;;;;;6.00;101066.00;;;;5095973;28;20235;-66
2022/03/13 00:34:55;;;;;;;14.17;8.87;;;;;6.00;101067.00;;;;5101143;28;20227;-66
2022/03/13 00:37:42;;;;;;;17.00;8.60;;;;;6.00;101067.00;;;;5103950;28;20222;-65
2022/03/13 00:40:32;;;;;;;13.53;7.90;;;;;5.80;101076.00;;;;5082461;28;20717;-68
2022/03/13 00:43:20;;;;;;;13.63;8.20;;;;;5.80;101068.00;;;;5073129;28;20299;-68
2022/03/13 00:46:06;;;;;;;18.23;8.67;;;;;5.80;101076.00;;;;5083299;28;20235;-69
2022/03/13 00:48:53;;;;;;;15.60;8.80;;;;;5.90;101070.00;;;;5082379;28;20235;-67
2022/03/13 00:51:40;;;;;;;13.70;7.83;;;;;5.90;101072.00;;;;5085370;28;20796;-67
2022/03/13 00:54:26;;;;;;;18.23;8.63;;;;;5.80;101071.00;;;;5094054;28;20237;-68
2022/03/13 00:57:12;;;;;;;15.10;8.87;;;;;5.70;101063.00;;;;5108285;28;20256;-67
2022/03/13 00:59:59;;;;;;;17.37;8.63;;;;;5.80;101067.00;;;;5090059;28;20223;-68
2022/03/13 01:02:45;;;;;;;18.17;8.50;;;;;5.60;101063.00;;;;5105477;27;20231;-66
2022/03/13 01:05:33;;;;;;;14.20;8.47;;;;;5.70;101070.00;;;;5088819;28;20231;-69
2022/03/13 01:08:19;;;;;;;17.40;9.50;;;;;5.70;101067.00;;;;5076359;28;20235;-66
2022/03/13 01:11:06;;;;;;;12.73;7.97;;;;;5.60;101062.00;;;;5071289;28;20361;-67
2022/03/13 01:13:54;;;;;;;13.83;7.93;;;;;5.60;101062.00;;;;5076843;28;20238;-69
2022/03/13 01:16:42;;;;;;;14.33;7.47;;;;;5.40;101057.00;;;;5087255;28;20223;-68
2022/03/13 01:19:28;;;;;;;15.20;7.80;;;;;5.40;101038.00;;;;5086083;28;20234;-68
2022/03/13 01:22:16;;;;;;;18.30;8.13;;;;;5.40;101062.00;;;;5095337;28;20299;-68
2022/03/13 01:25:02;;;;;;;15.43;8.57;;;;;5.40;101048.00;;;;5092128;28;20245;-68
2022/03/13 01:27:49;;;;;;;15.63;8.53;;;;;5.40;101044.00;;;;5102030;28;20251;-67
2022/03/13 01:30:35;;;;;;;16.70;8.20;;;;;5.30;101050.00;;;;5107401;28;20304;-67
2022/03/13 01:33:21;;;;;;;17.13;8.63;;;;;5.30;101052.00;;;;5099456;28;20284;-67
2022/03/13 01:36:07;;;;;;;16.03;9.80;;;;;5.40;101052.00;;;;5106493;28;20245;-70
2022/03/13 01:38:59;;;;;;;17.27;9.00;;;;;5.40;101044.00;;;;5131376;28;20219;-71
2022/03/13 01:41:45;;;;;;;14.20;7.90;;;;;5.30;101054.00;;;;5131967;28;20265;-70
2022/03/13 01:44:31;;;;;;;17.20;8.93;;;;;5.40;101048.00;;;;5134633;28;20241;-70
2022/03/13 01:47:18;;;;;;;17.53;8.63;;;;;5.30;101036.00;;;;5117113;28;20247;-71
2022/03/13 01:50:09;;;;;;;16.17;8.47;;;;;5.40;101046.00;;;;5120211;28;20230;-71
2022/03/13 01:52:55;;;;;;;14.80;8.67;;;;;5.30;101028.00;;;;5134922;28;20245;-69
2022/03/13 01:55:42;;;;;;;17.03;8.83;;;;;5.30;101031.00;;;;5128152;28;20225;-68
2022/03/13 01:58:31;;;;;;;15.87;8.93;;;;;5.30;101034.00;;;;5130701;28;20234;-67
2022/03/13 02:01:18;;;;;;;17.63;8.73;;;;;5.20;101019.00;;;;5121059;28;20234;-70
2022/03/13 02:04:05;;;;;;;15.60;8.87;;;;;5.00;101015.00;;;;5120463;28;20226;-66
2022/03/13 02:06:52;;;;;;;16.33;8.13;;;;;5.00;101014.00;;;;5106256;28;20222;-67
2022/03/13 02:09:38;;;;;;;15.83;8.53;;;;;5.00;101008.00;;;;5103159;28;20296;-67
2022/03/13 02:12:27;;;;;;;14.67;8.07;;;;;4.80;100981.00;;;;5101766;28;20242;-66
2022/03/13 02:15:13;;;;;;;14.60;8.40;;;;;4.90;101012.00;;;;5106521;28;20234;-67
2022/03/13 02:18:00;;;;;;;16.33;8.73;;;;;4.80;100993.00;;;;5104863;28;20268;-66
2022/03/13 02:20:47;;;;;;;14.17;7.97;;;;;5.00;100988.00;;;;5099710;28;20235;-65
2022/03/13 02:23:36;;;;;;;17.10;8.20;;;;;5.00;100977.00;;;;5105852;28;20352;-67
2022/03/13 02:26:22;;;;;;;18.13;8.97;;;;;4.80;100977.00;;;;5092199;28;20343;-65
2022/03/13 02:29:12;;;;;;;15.37;8.50;;;;;4.80;100972.00;;;;5081334;28;20220;-66
2022/03/13 02:32:00;;;;;;;18.40;9.20;;;;;4.90;100970.00;;;;5068782;28;20312;-67
2022/03/13 02:34:47;;;;;;;16.97;9.07;;;;;5.00;100982.00;;;;5074663;28;20766;-66
2022/03/13 02:37:40;;;;;;;15.00;8.17;;;;;4.80;100971.00;;;;5076704;28;20252;-69
2022/03/13 02:40:33;;;;;;;15.63;8.17;;;;;4.70;100971.00;;;;5072414;28;20321;-67
2022/03/13 02:43:20;;;;;;;15.60;9.40;;;;;4.70;100968.00;;;;5068020;28;20704;-68
2022/03/13 02:46:18;;;;;;;16.47;9.10;;;;;4.60;100963.00;;;;5066430;28;20754;-67
2022/03/13 02:49:05;;;;;;;17.57;8.93;;;;;4.70;100957.00;;;;5075204;28;20222;-66
2022/03/13 02:51:52;;;;;;;15.83;8.73;;;;;4.60;100958.00;;;;5081654;28;20321;-65
2022/03/13 02:54:38;;;;;;;14.77;8.27;;;;;4.60;100908.00;;;;5091198;28;20365;-69
2022/03/13 02:57:26;;;;;;;17.33;8.30;;;;;4.60;100952.00;;;;5094666;28;20303;-66
2022/03/13 03:00:15;;;;;;;15.10;8.07;;;;;4.60;100946.00;;;;5093069;28;20218;-68
2022/03/13 03:03:02;;;;;;;18.93;8.93;;;;;4.60;100954.00;;;;5105848;28;20230;-68
2022/03/13 03:05:48;;;;;;;16.17;9.37;;;;;4.50;100941.00;;;;5093937;28;20239;-70
2022/03/13 03:08:37;;;;;;;16.93;8.97;;;;;4.50;100943.00;;;;5087300;28;20231;-66
2022/03/13 03:11:24;;;;;;;15.60;9.23;;;;;4.70;100940.00;;;;5083932;28;20558;-67
2022/03/13 03:14:12;;;;;;;15.70;9.20;;;;;4.70;100944.00;;;;5089137;28;20230;-67
2022/03/13 03:16:58;;;;;;;16.90;9.10;;;;;4.50;100954.00;;;;5084797;28;20586;-66
2022/03/13 03:19:45;;;;;;;15.33;9.20;;;;;4.50;100941.00;;;;5084115;28;20361;-67
2022/03/13 03:22:32;;;;;;;15.80;8.37;;;;;4.40;100947.00;;;;5101894;28;20243;-67
2022/03/13 03:25:22;;;;;;;16.27;9.40;;;;;4.60;100941.00;;;;5098513;28;20247;-67
2022/03/13 03:28:09;;;;;;;15.23;8.80;;;;;4.40;100916.00;;;;5104382;28;20689;-66
2022/03/13 03:31:00;;;;;;;14.80;8.57;;;;;4.40;100951.00;;;;5102785;28;20679;-68
2022/03/13 03:33:46;;;;;;;15.47;8.53;;;;;4.30;100948.00;;;;5101941;28;20589;-66
2022/03/13 03:36:33;;;;;;;13.50;8.23;;;;;4.30;100943.00;;;;5101460;28;20249;-67
2022/03/13 03:39:21;;;;;;;15.70;8.67;;;;;4.40;100950.00;;;;5089653;28;20222;-66
2022/03/13 03:42:08;;;;;;;15.60;8.70;;;;;4.30;100947.00;;;;5092509;28;20222;-67
2022/03/13 03:44:55;;;;;;;17.30;8.73;;;;;4.30;100933.00;;;;5099356;28;20709;-67
2022/03/13 03:47:42;;;;;;;19.03;9.20;;;;;4.20;100924.00;;;;5097749;28;20222;-68
2022/03/13 03:50:29;;;;;;;15.80;8.17;;;;;4.10;100946.00;;;;5092385;28;20226;-65
2022/03/13 03:53:15;;;;;;;15.83;8.37;;;;;4.10;100948.00;;;;5089434;28;20222;-67
2022/03/13 03:56:02;;;;;;;20.40;8.23;;;;;4.20;100942.00;;;;5103649;28;20640;-67
2022/03/13 03:58:48;;;;;;;15.33;8.23;;;;;4.10;100941.00;;;;5101796;28;20230;-67
2022/03/13 04:01:37;;;;;;;14.47;8.47;;;;;4.10;100938.00;;;;5101686;28;20235;-66
2022/03/13 04:04:25;;;;;;;16.83;8.67;;;;;4.10;100947.00;;;;5077635;28;20235;-68
2022/03/13 04:07:12;;;;;;;16.03;8.70;;;;;4.10;100942.00;;;;5084312;28;20289;-69
2022/03/13 04:09:58;;;;;;;13.33;8.90;;;;;4.10;100939.00;;;;5081303;28;20235;-68
2022/03/13 04:12:44;;;;;;;18.37;9.07;;;;;4.00;100943.00;;;;5066947;28;20297;-67
2022/03/13 04:15:30;;;;;;;14.93;8.57;;;;;4.00;100948.00;;;;5093900;28;20732;-69
2022/03/13 04:18:17;;;;;;;18.27;7.93;;;;;4.00;100895.00;;;;5075892;28;20227;-68
2022/03/13 04:21:06;;;;;;;17.10;8.27;;;;;3.90;100954.00;;;;5092238;28;20284;-66
2022/03/13 04:23:54;;;;;;;15.23;8.27;;;;;3.90;100941.00;;;;5103830;28;20226;-67
2022/03/13 04:26:40;;;;;;;15.97;8.60;;;;;3.80;100933.00;;;;5105656;28;20238;-69
2022/03/13 04:29:27;;;;;;;17.77;8.30;;;;;3.80;100931.00;;;;5098494;28;20601;-69
2022/03/13 04:32:14;;;;;;;16.17;8.73;;;;;3.80;100942.00;;;;5089973;28;20278;-66
2022/03/13 04:35:01;;;;;;;15.37;8.23;;;;;4.00;100945.00;;;;5104886;28;20345;-66
2022/03/13 04:37:48;;;;;;;15.70;8.47;;;;;3.80;100934.00;;;;5107683;28;20229;-69
2022/03/13 04:40:35;;;;;;;16.30;9.13;;;;;3.70;100934.00;;;;5103761;28;20234;-64
2022/03/13 04:43:22;;;;;;;17.43;8.53;;;;;3.80;100925.00;;;;5103407;28;20240;-67
2022/03/13 04:46:08;;;;;;;16.60;8.23;;;;;3.70;100930.00;;;;5107790;28;20773;-66
2022/03/13 04:48:57;;;;;;;15.77;8.73;;;;;3.70;100937.00;;;;5107144;28;20299;-70
2022/03/13 04:51:44;;;;;;;15.10;8.23;;;;;3.50;100933.00;;;;5107925;28;20308;-65
2022/03/13 04:54:32;;;;;;;15.07;8.60;;;;;3.70;100923.00;;;;5091073;28;20320;-66
2022/03/13 04:57:18;;;;;;;15.73;8.43;;;;;3.60;100925.00;;;;5106951;28;20312;-66
2022/03/13 05:00:06;;;;;;;16.50;8.30;;;;;3.60;100929.00;;;;5106425;28;20230;-67
2022/03/13 05:02:52;;;;;;;15.60;8.53;;;;;3.50;100935.00;;;;5094470;28;20305;-66
2022/03/13 05:05:40;;;;;;;17.20;8.47;;;;;3.60;100943.00;;;;5072980;28;20234;-67
2022/03/13 05:08:26;;;;;;;15.67;8.00;;;;;3.50;100934.00;;;;5069812;28;20236;-66
2022/03/13 05:11:15;;;;;;;15.47;9.60;;;;;3.60;100945.00;;;;5067206;28;20602;-67
2022/03/13 05:14:01;;;;;;;15.00;8.13;;;;;3.70;100945.00;;;;5051085;28;20279;-66
2022/03/13 05:16:47;;;;;;;18.07;9.13;;;;;3.60;100940.00;;;;5077690;28;20235;-66
2022/03/13 05:19:34;;;;;;;14.13;8.17;;;;;3.40;100941.00;;;;5082896;28;20237;-66
2022/03/13 05:22:20;;;;;;;16.73;8.73;;;;;3.40;100938.00;;;;5092311;28;20239;-69
2022/03/13 05:25:07;;;;;;;17.37;7.63;;;;;3.30;100941.00;;;;5106864;28;20241;-66
2022/03/13 05:27:55;;;;;;;15.67;8.30;;;;;3.30;100950.00;;;;5106540;28;20241;-66
2022/03/13 05:30:43;;;;;;;16.97;7.73;;;;;3.50;100953.00;;;;5104535;28;20718;-62
2022/03/13 05:33:30;;;;;;;15.60;7.70;;;;;3.40;100898.00;;;;5094679;28;20235;-67
2022/03/13 05:36:17;;;;;;;15.90;7.47;;;;;3.20;100944.00;;;;5090371;28;20290;-69
2022/03/13 05:39:03;;;;;;;18.63;9.33;;;;;3.30;100942.00;;;;5106146;28;20232;-66
2022/03/13 05:41:50;;;;;;;16.77;8.67;;;;;3.30;100945.00;;;;5106636;28;20607;-67
2022/03/13 05:44:38;;;;;;;16.40;8.73;;;;;3.30;100941.00;;;;5099127;28;20285;-66
2022/03/13 05:47:24;;;;;;;17.00;7.97;;;;;3.10;100946.00;;;;5068000;28;20251;-67
2022/03/13 05:50:10;;;;;;;17.20;8.47;;;;;3.10;100948.00;;;;5077527;28;20239;-68
2022/03/13 05:52:57;;;;;;;15.93;8.30;;;;;3.10;100950.00;;;;5078226;28;20234;-71
2022/03/13 05:55:44;;;;;;;14.23;7.77;;;;;3.10;100935.00;;;;5070547;28;20238;-68
2022/03/13 05:58:30;;;;;;;15.53;7.63;;;;;3.20;100939.00;;;;5068425;28;20768;-63
2022/03/13 06:01:18;;;;;;;17.10;8.10;;;;;3.10;100935.00;;;;5082728;28;20238;-67
2022/03/13 06:04:08;;;;;;;14.53;8.47;;;;;3.40;100936.00;;;;5095249;28;20230;-66
2022/03/13 06:06:55;;;;;;;16.30;7.73;;;;;3.40;100947.00;;;;5103458;28;20299;-62
2022/03/13 06:09:41;;;;;;;16.63;9.03;;;;;3.20;100948.00;;;;5106727;28;20277;-66
2022/03/13 06:12:28;;;;;;;15.67;8.00;;;;;3.40;100937.00;;;;5093499;28;20325;-67
2022/03/13 06:15:14;;;;;;;16.80;8.70;;;;;3.30;100941.00;;;;5100309;28;20241;-67
2022/03/13 06:18:02;;;;;;;14.80;8.57;;;;;3.50;100939.00;;;;5105911;28;20229;-69
2022/03/13 06:20:48;;;;;;;15.20;9.03;;;;;3.50;100932.00;;;;5101035;28;20360;-68
2022/03/13 06:23:35;;;;;;;16.97;8.77;;;;;3.60;100929.00;;;;5099630;28;20288;-67
2022/03/13 06:26:21;;;;;;;19.83;8.73;;;;;3.60;100933.00;;;;5079729;28;20237;-67
2022/03/13 06:29:08;;;;;;;16.97;8.50;;;;;3.60;100921.00;;;;5105587;28;20347;-66
2022/03/13 06:31:54;;;;;;;19.20;9.50;;;;;3.80;100939.00;;;;5096717;28;20686;-66
2022/03/13 06:34:42;;;;;;;26.20;11.80;;;;;3.90;100941.00;;;;5092348;28;20352;-66
2022/03/13 06:37:28;;;;;;;19.87;10.30;;;;;3.90;100944.00;;;;5102899;28;20567;-66
2022/03/13 06:40:20;;;;;;;20.20;9.40;;;;;4.00;100950.00;;;;5103172;28;20222;-67
2022/03/13 06:43:06;;;;;;;18.50;8.80;;;;;4.10;100942.00;;;;5100542;28;20349;-67
2022/03/13 06:45:52;;;;;;;19.33;9.53;;;;;4.10;100941.00;;;;5105623;28;20237;-67
2022/03/13 06:48:39;;;;;;;16.60;9.13;;;;;4.10;100946.00;;;;5102771;28;20222;-63
2022/03/13 06:51:27;;;;;;;18.70;9.50;;;;;4.30;100934.00;;;;5091123;28;20364;-65
2022/03/13 06:54:13;;;;;;;19.30;9.80;;;;;4.30;100940.00;;;;5099053;28;20849;-66
2022/03/13 06:56:59;;;;;;;17.93;9.10;;;;;4.40;100939.00;;;;5105055;28;20231;-66
2022/03/13 06:59:46;;;;;;;14.37;8.87;;;;;4.40;100953.00;;;;5105002;28;20225;-66
2022/03/13 07:02:32;;;;;;;17.57;9.43;;;;;4.40;100947.00;;;;5102288;28;20598;-66
2022/03/13 07:05:20;;;;;;;16.50;9.80;;;;;4.40;100958.00;;;;5089212;28;20254;-65
2022/03/13 07:08:08;;;;;;;18.40;10.00;;;;;4.50;100914.00;;;;5102859;28;20742;-67
2022/03/13 07:10:54;;;;;;;17.17;9.73;;;;;4.50;100956.00;;;;5092142;28;20234;-63
2022/03/13 07:13:44;;;;;;;16.53;9.07;;;;;4.60;100948.00;;;;5098487;27;20991;-67
2022/03/13 07:16:31;;;;;;;18.00;9.33;;;;;4.70;100958.00;;;;5082510;28;20229;-66
2022/03/13 07:19:17;;;;;;;18.17;9.70;;;;;4.80;100942.00;;;;5104263;28;20218;-67
2022/03/13 07:22:04;;;;;;;17.30;9.27;;;;;4.90;100930.00;;;;5104619;28;20230;-67
2022/03/13 07:24:52;;;;;;;16.53;9.57;;;;;5.00;100950.00;;;;5105973;28;20226;-66
2022/03/13 07:27:39;;;;;;;19.00;9.67;;;;;5.10;100946.00;;;;5096629;28;20230;-68
2022/03/13 07:30:25;;;;;;;15.77;8.97;;;;;5.30;100950.00;;;;5072296;28;20253;-69
2022/03/13 07:33:12;;;;;;;17.43;9.17;;;;;5.30;100953.00;;;;5074147;28;20224;-66
2022/03/13 07:35:58;;;;;;;16.90;9.37;;;;;5.40;100952.00;;;;5056080;28;20347;-67
2022/03/13 07:38:44;;;;;;;15.93;8.57;;;;;5.40;100957.00;;;;5051610;28;20306;-68
2022/03/13 07:41:33;;;;;;;16.57;7.33;;;;;5.50;100955.00;;;;5089463;28;20226;-68
2022/03/13 07:44:19;;;;;;;18.03;8.33;;;;;5.50;100957.00;;;;5083923;28;20219;-68
2022/03/13 07:47:05;;;;;;;23.17;11.00;;;;;5.60;100963.00;;;;5082491;28;20373;-68
2022/03/13 07:49:52;;;;;;;18.63;9.63;;;;;5.60;100963.00;;;;5067420;28;20372;-68
2022/03/13 07:52:39;;;;;;;15.37;8.87;;;;;5.60;100965.00;;;;5076396;28;20309;-70
2022/03/13 07:55:25;;;;;;;19.03;8.67;;;;;5.70;100958.00;;;;5074660;28;20296;-67
2022/03/13 07:58:13;;;;;;;19.63;9.40;;;;;5.90;100954.00;;;;5079855;28;20226;-69
2022/03/13 08:00:59;;;;;;;19.73;10.20;;;;;6.00;100953.00;;;;5068197;28;20315;-68
2022/03/13 08:03:47;;;;;;;16.87;9.50;;;;;6.10;100967.00;;;;5083650;28;20252;-67
2022/03/13 08:06:35;;;;;;;20.33;9.73;;;;;6.10;100967.00;;;;5061497;28;20255;-68
2022/03/13 08:09:21;;;;;;;14.13;7.77;;;;;6.30;100958.00;;;;5064003;28;20232;-68
2022/03/13 08:12:08;;;;;;;17.70;9.17;;;;;6.60;100949.00;;;;5056301;28;20240;-68
2022/03/13 08:14:56;;;;;;;16.07;7.83;;;;;6.90;100952.00;;;;5070933;28;20274;-69
2022/03/13 08:17:43;;;;;;;14.70;8.23;;;;;7.10;100945.00;;;;5093513;28;20238;-68
2022/03/13 08:20:29;;;;;;;15.13;8.10;;;;;7.30;100949.00;;;;5080594;28;20277;-68
2022/03/13 08:23:16;;;;;;;16.03;8.10;;;;;7.40;100940.00;;;;5085633;28;20349;-69
2022/03/13 08:26:02;;;;;;;15.27;7.83;;;;;7.70;100941.00;;;;5103945;28;20249;-67
2022/03/13 08:28:48;;;;;;;18.03;7.83;;;;;7.80;100945.00;;;;5104043;28;20234;-65
2022/03/13 08:31:36;;;;;;;14.07;8.07;;;;;7.90;100953.00;;;;5091225;28;20234;-69
2022/03/13 08:34:22;;;;;;;13.40;7.47;;;;;7.90;100950.00;;;;5070610;28;20232;-69
2022/03/13 08:37:10;;;;;;;16.53;8.30;;;;;7.80;100945.00;;;;5083879;28;20232;-65
2022/03/13 08:39:56;;;;;;;14.03;7.40;;;;;7.90;100952.00;;;;5093906;28;20227;-69
2022/03/13 08:42:45;;;;;;;13.73;7.43;;;;;8.30;100950.00;;;;5094093;28;20723;-69
2022/03/13 08:45:32;;;;;;;17.13;9.00;;;;;8.50;100943.00;;;;5090097;28;20289;-68
2022/03/13 08:48:20;;;;;;;15.77;8.43;;;;;8.50;100941.00;;;;5089586;28;20729;-68
2022/03/13 08:51:06;;;;;;;15.30;8.57;;;;;8.40;100938.00;;;;5100815;28;20332;-67
2022/03/13 08:53:53;;;;;;;16.93;8.10;;;;;8.60;100924.00;;;;5056736;28;21114;-67
2022/03/13 08:56:39;;;;;;;15.13;8.50;;;;;8.60;100930.00;;;;5070899;28;20378;-68
2022/03/13 08:59:26;;;;;;;15.97;8.53;;;;;8.90;100935.00;;;;5067658;28;20731;-68
2022/03/13 09:02:14;;;;;;;17.20;7.93;;;;;9.30;100939.00;;;;5063952;28;20297;-67
2022/03/13 09:05:02;;;;;;;12.27;7.40;;;;;9.70;100930.00;;;;5067897;28;20291;-68
2022/03/13 09:07:48;;;;;;;15.23;8.07;;;;;9.90;100927.00;;;;5099288;28;20297;-68
2022/03/13 09:10:34;;;;;;;16.00;7.53;;;;;10.10;100933.00;;;;5071094;28;20270;-68
2022/03/13 09:13:21;;;;;;;12.67;7.33;;;;;10.30;100922.00;;;;5086831;28;20251;-68
2022/03/13 09:16:07;;;;;;;15.30;7.90;;;;;10.70;100929.00;;;;5079382;28;20237;-68
2022/03/13 09:18:53;;;;;;;12.90;7.63;;;;;10.90;100936.00;;;;5086704;28;20235;-68
2022/03/13 09:21:41;;;;;;;16.97;8.87;;;;;11.00;100935.00;;;;5080854;28;20265;-69
2022/03/13 09:24:27;;;;;;;16.13;8.67;;;;;11.00;100940.00;;;;5061401;28;20235;-67
2022/03/13 09:27:14;;;;;;;15.03;8.80;;;;;10.90;100936.00;;;;5083923;28;20223;-67
2022/03/13 09:30:00;;;;;;;16.67;8.33;;;;;11.20;100938.00;;;;5083470;28;20779;-70
2022/03/13 09:32:46;;;;;;;16.93;8.43;;;;;11.40;100933.00;;;;5087155;28;20235;-68
2022/03/13 09:35:32;;;;;;;12.10;7.47;;;;;11.60;100931.00;;;;5072046;28;20274;-68
2022/03/13 09:38:20;;;;;;;14.93;8.43;;;;;11.60;100934.00;;;;5079665;28;20309;-70
2022/03/13 09:41:06;;;;;;;14.20;8.03;;;;;11.80;100932.00;;;;5061514;28;20240;-67
2022/03/13 09:43:53;;;;;;;16.37;8.53;;;;;12.10;100926.00;;;;5073794;28;20226;-67
2022/03/13 09:46:39;;;;;;;15.40;8.90;;;;;12.30;100932.00;;;;5080230;28;20257;-67
2022/03/13 09:49:27;;;;;;;12.87;7.80;;;;;12.50;100938.00;;;;5082681;28;20222;-68
2022/03/13 09:52:13;;;;;;;14.53;8.03;;;;;12.80;100926.00;;;;5079581;28;20248;-67
2022/03/13 09:55:01;;;;;;;16.73;8.07;;;;;13.00;100920.00;;;;5075699;28;20598;-67
2022/03/13 09:57:48;;;;;;;18.03;9.13;;;;;13.30;100914.00;;;;5076580;28;20698;-66
2022/03/13 10:00:36;;;;;;;16.60;9.20;;;;;13.40;100926.00;;;;5074131;28;20231;-67
2022/03/13 10:03:22;;;;;;;15.27;8.33;;;;;13.80;100917.00;;;;5078268;28;20699;-66
2022/03/13 10:06:09;;;;;;;15.67;8.77;;;;;13.90;100908.00;;;;5083012;28;20264;-68
2022/03/13 10:08:55;;;;;;;15.20;8.47;;;;;14.20;100910.00;;;;5067321;28;20231;-68
2022/03/13 10:11:43;;;;;;;15.90;8.47;;;;;14.10;100910.00;;;;5078078;28;20254;-69
2022/03/13 10:14:30;;;;;;;19.70;9.10;;;;;14.10;100915.00;;;;5080286;28;20857;-68
2022/03/13 10:17:26;;;;;;;15.40;8.93;;;;;14.60;100916.00;;;;5078752;28;20317;-65
2022/03/13 10:20:19;;;;;;;14.50;8.67;;;;;14.80;100922.00;;;;5064543;28;20275;-69
2022/03/13 10:23:10;;;;;;;17.07;9.03;;;;;15.10;100926.00;;;;5059412;28;20366;-67
2022/03/13 10:25:56;;;;;;;17.03;9.00;;;;;15.60;100924.00;;;;5076998;28;20818;-66
2022/03/13 10:28:43;;;;;;;14.57;9.00;;;;;16.00;100919.00;;;;5079414;28;20962;-69
2022/03/13 10:31:31;;;;;;;13.50;8.80;;;;;16.20;100919.00;;;;5078813;28;20270;-68
2022/03/13 10:34:23;;;;;;;15.87;9.60;;;;;16.00;100924.00;;;;5060502;28;20244;-68
2022/03/13 10:37:10;;;;;;;18.00;9.93;;;;;15.90;100916.00;;;;5078291;28;20255;-66
2022/03/13 10:40:06;;;;;;;16.23;9.33;;;;;16.00;100915.00;;;;5075733;28;20235;-69
2022/03/13 10:42:53;;;;;;;16.50;9.17;;;;;15.90;100917.00;;;;5076550;28;20291;-67
2022/03/13 10:45:43;;;;;;;16.03;9.40;;;;;16.10;100917.00;;;;5076668;28;20350;-68
2022/03/13 10:48:33;;;;;;;17.33;9.07;;;;;16.30;100915.00;;;;5065737;28;20235;-70
2022/03/13 10:51:33;;;;;;;21.23;10.10;;;;;16.40;100912.00;;;;5060224;28;20231;-69
2022/03/13 10:54:30;;;;;;;15.83;9.47;;;;;16.40;100915.00;;;;5067840;28;20370;-69
2022/03/13 10:57:17;;;;;;;16.83;9.60;;;;;16.40;100915.00;;;;5099837;28;20299;-69
2022/03/13 11:00:12;;;;;;;22.20;9.77;;;;;16.70;100909.00;;;;5102423;28;20372;-70
2022/03/13 11:03:11;;;;;;;18.07;9.43;;;;;16.80;100908.00;;;;5077113;28;20251;-68
2022/03/13 11:05:58;;;;;;;13.83;8.97;;;;;16.70;100908.00;;;;5070494;28;20231;-70
2022/03/13 11:08:44;;;;;;;16.20;9.50;;;;;16.70;100895.00;;;;5069049;28;20652;-70
2022/03/13 11:11:32;;;;;;;17.37;9.90;;;;;16.80;100901.00;;;;5072295;28;20266;-69
2022/03/13 11:14:20;;;;;;;16.20;9.73;;;;;16.60;100898.00;;;;5072059;28;20374;-68
2022/03/13 11:17:08;;;;;;;15.20;9.20;;;;;16.60;100902.00;;;;5069231;28;20232;-69
2022/03/13 11:19:58;;;;;;;18.20;9.47;;;;;16.80;100899.00;;;;5070313;28;20232;-71
2022/03/13 11:22:44;;;;;;;16.97;9.83;;;;;16.90;100893.00;;;;5076124;28;20321;-69
2022/03/13 11:25:31;;;;;;;15.07;9.27;;;;;16.70;100892.00;;;;5091342;28;20222;-68
2022/03/13 11:28:19;;;;;;;16.90;9.87;;;;;17.00;100885.00;;;;5091854;28;20909;-69
2022/03/13 11:31:28;;;;;;;17.13;10.27;;;;;17.00;100890.00;;;;5089929;28;20278;-69
2022/03/13 11:34:16;;;;;;;19.23;11.03;;;;;17.00;100896.00;;;;5097172;28;20295;-69
2022/03/13 11:37:30;;;;;;;16.60;10.00;;;;;16.80;100882.00;;;;5102196;28;20303;-68
2022/03/13 11:40:18;;;;;;;15.57;9.53;;;;;17.30;100885.00;;;;5097445;28;20234;-69
2022/03/13 11:43:10;;;;;;;20.47;10.50;;;;;17.30;100879.00;;;;5081295;28;20251;-70
2022/03/13 11:45:59;;;;;;;17.23;10.03;;;;;17.60;100882.00;;;;5074102;28;20739;-68
2022/03/13 11:48:46;;;;;;;17.67;9.90;;;;;17.80;100880.00;;;;5077269;28;20247;-69
2022/03/13 11:51:32;;;;;;;16.10;9.77;;;;;17.80;100881.00;;;;5074008;28;20749;-68
2022/03/13 11:54:57;;;;;;;16.77;8.80;;;;;17.90;100855.00;;;;5079188;28;20696;-69
2022/03/13 11:57:45;;;;;;;14.87;8.57;;;;;18.30;100871.00;;;;5073063;28;20354;-68
2022/03/13 12:00:32;;;;;;;12.77;8.00;;;;;18.60;100873.00;;;;5075272;28;20384;-69
2022/03/13 12:03:20;;;;;;;13.33;8.67;;;;;18.60;100871.00;;;;5076866;28;20223;-67
2022/03/13 12:06:06;;;;;;;14.90;8.37;;;;;18.60;100864.00;;;;5076205;28;20231;-69
2022/03/13 12:09:06;;;;;;;14.50;8.50;;;;;18.30;100868.00;;;;5073848;28;20223;-70
2022/03/13 12:12:03;;;;;;;14.27;8.83;;;;;18.20;100859.00;;;;5083634;28;20231;-68
2022/03/13 12:14:51;;;;;;;16.20;8.63;;;;;18.30;100871.00;;;;5057370;28;20378;-69
2022/03/13 12:17:45;;;;;;;12.53;8.60;;;;;18.40;100865.00;;;;5090762;28;20647;-68
2022/03/13 12:20:33;;;;;;;15.40;9.13;;;;;18.70;100854.00;;;;5088727;28;20314;-66
2022/03/13 12:23:27;;;;;;;15.80;8.70;;;;;19.00;100835.00;;;;5102516;28;20234;-68
2022/03/13 12:26:18;;;;;;;14.73;8.63;;;;;19.00;100848.00;;;;5101447;28;20215;-68
2022/03/13 12:29:05;;;;;;;14.70;9.27;;;;;19.30;100852.00;;;;5105491;28;20219;-68
2022/03/13 12:31:53;;;;;;;16.53;8.70;;;;;19.40;100844.00;;;;5063218;28;20231;-67
2022/03/13 12:34:41;;;;;;;17.13;9.17;;;;;19.40;100833.00;;;;5066382;28;20236;-71
2022/03/13 12:37:27;;;;;;;15.33;8.10;;;;;19.40;100828.00;;;;5083619;28;20231;-67
2022/03/13 12:40:14;;;;;;;15.30;8.00;;;;;19.40;100827.00;;;;5086443;28;20232;-69
2022/03/13 12:43:04;;;;;;;13.07;8.40;;;;;19.20;100831.00;;;;5078562;28;20313;-68
2022/03/13 12:45:51;;;;;;;14.63;8.17;;;;;19.40;100823.00;;;;5081436;28;20726;-68
2022/03/13 12:48:38;;;;;;;14.40;7.90;;;;;19.50;100815.00;;;;5085524;28;20739;-69
2022/03/13 12:51:35;;;;;;;12.60;7.50;;;;;19.70;100821.00;;;;5098858;28;20335;-69
2022/03/13 12:54:29;;;;;;;10.73;7.17;;;;;19.90;100816.00;;;;5105839;28;20273;-69
2022/03/13 12:57:19;;;;;;;12.20;7.73;;;;;20.10;100825.00;;;;5105532;28;20361;-69
2022/03/13 13:00:07;;;;;;;12.73;6.47;;;;;20.10;100813.00;;;;5105860;28;20245;-70
2022/03/13 13:03:06;;;;;;;9.80;6.10;;;;;20.10;100818.00;;;;5090754;28;20245;-68
2022/03/13 13:05:52;;;;;;;9.80;6.10;;;;;20.20;100804.00;;;;5093231;28;20228;-69
2022/03/13 13:08:39;;;;;;;9.13;5.03;;;;;20.30;100815.00;;;;5107537;28;20281;-68
2022/03/13 13:11:30;;;;;;;7.13;4.87;;;;;20.30;100809.00;;;;5108382;28;20324;-67
2022/03/13 13:14:23;;;;;;;7.43;5.13;;;;;20.40;100805.00;;;;5109075;28;20248;-68
2022/03/13 13:17:11;;;;;;;8.77;5.30;;;;;20.30;100800.00;;;;5106297;28;20279;-70
2022/03/13 13:20:01;;;;;;;8.17;5.53;;;;;20.40;100802.00;;;;5108318;28;20318;-65
2022/03/13 13:22:48;;;;;;;8.73;5.80;;;;;20.20;100793.00;;;;5109018;27;20236;-69
2022/03/13 13:25:35;;;;;;;10.50;5.90;;;;;20.30;100783.00;;;;5089380;28;20359;-67
2022/03/13 13:28:21;;;;;;;8.20;5.60;;;;;20.60;100784.00;;;;5088088;28;20227;-67
2022/03/13 13:31:14;;;;;;;15.30;8.37;;;;;20.90;100788.00;;;;5087448;28;20234;-69
2022/03/13 13:34:14;;;;;;;11.87;8.07;;;;;20.80;100785.00;;;;5116186;28;20296;-68
2022/03/13 13:37:09;;;;;;;16.30;8.90;;;;;20.70;100780.00;;;;5114141;28;20226;-64
2022/03/13 13:40:08;;;;;;;14.33;8.90;;;;;20.30;100789.00;;;;5110997;27;20261;-66
2022/03/13 13:42:56;;;;;;;17.00;9.90;;;;;20.60;100787.00;;;;5093252;28;20242;-68
2022/03/13 13:45:44;;;;;;;15.67;8.43;;;;;20.70;100781.00;;;;5091575;28;20870;-69
2022/03/13 13:48:31;;;;;;;14.23;8.10;;;;;20.90;100794.00;;;;5105978;28;20258;-67